Time;durP1;ratioP1;P1;durP2;ratioP2;P2;SDS_P1;SDS_P2;PMS_P1;PMS_P2;Temp;Humidity;BMP_temperature;BMP_pressure;BME280_temperature;BME280_humidity;BME280_pressure;Samples;Min_cycle;Max_cycle;Signal;HPM_P1;HPM_P2
2023/07/17 00:02:34;;;;;;;12.48;4.35;;;;;;;20.85;75.82;98517.94;5075191;28;20082;-80
2023/07/17 00:05:18;;;;;;;10.45;4.60;;;;;;;20.98;75.70;98529.88;5077051;28;20109;-77
2023/07/17 00:08:02;;;;;;;10.38;4.25;;;;;;;20.91;75.94;98521.38;5071724;28;20082;-78
2023/07/17 00:10:46;;;;;;;11.40;4.80;;;;;;;20.90;75.47;98525.91;5073274;28;20059;-77
2023/07/17 00:13:30;;;;;;;10.40;4.30;;;;;;;20.32;77.16;98521.88;5074897;28;20157;-77
2023/07/17 00:16:14;;;;;;;15.30;4.50;;;;;;;20.55;76.43;98519.66;5076687;28;20162;-78
2023/07/17 00:18:57;;;;;;;8.45;4.40;;;;;;;20.51;76.76;98526.59;5083625;28;20492;-79
2023/07/17 00:21:41;;;;;;;11.70;4.85;;;;;;;21.06;75.89;98533.84;5080538;28;20093;-77
2023/07/17 00:24:25;;;;;;;17.17;5.10;;;;;;;20.88;75.85;98538.75;5080617;28;20088;-78
2023/07/17 00:27:09;;;;;;;9.63;4.80;;;;;;;20.21;77.01;98525.63;5074162;28;20043;-78
2023/07/17 00:29:54;;;;;;;9.43;4.57;;;;;;;20.39;78.07;98522.38;5076635;28;20140;-81
2023/07/17 00:32:38;;;;;;;16.95;5.07;;;;;;;20.89;76.59;98532.31;5077153;28;20043;-78
2023/07/17 00:35:22;;;;;;;13.40;4.80;;;;;;;20.25;78.25;98532.81;5073776;28;20067;-78
2023/07/17 00:38:06;;;;;;;12.20;5.13;;;;;;;20.81;77.02;98530.22;5080589;28;20430;-78
2023/07/17 00:40:50;;;;;;;16.60;5.35;;;;;;;20.65;76.94;98534.81;5072238;28;20043;-79
2023/07/17 00:43:34;;;;;;;13.90;5.88;;;;;;;20.04;78.98;98548.03;5078331;28;20047;-78
2023/07/17 00:46:18;;;;;;;11.43;4.43;;;;;;;20.33;78.26;98550.13;5079354;28;20115;-78
2023/07/17 00:49:03;;;;;;;13.40;4.70;;;;;;;19.94;79.02;98556.06;5075736;28;20063;-78
2023/07/17 00:51:48;;;;;;;10.30;4.45;;;;;;;19.87;79.26;98560.84;5075152;28;20047;-78
2023/07/17 00:54:33;;;;;;;10.65;4.63;;;;;;;19.92;79.89;98566.97;5081572;28;20046;-78
2023/07/17 00:57:18;;;;;;;8.27;4.32;;;;;;;19.88;79.43;98575.75;5076076;28;20051;-78
2023/07/17 01:00:08;;;;;;;10.55;4.63;;;;;;;20.11;79.28;98580.53;5072717;28;20440;-78
2023/07/17 01:02:53;;;;;;;7.43;4.25;;;;;;;20.21;79.00;98573.59;5080285;28;20047;-78
2023/07/17 01:05:37;;;;;;;13.70;4.90;;;;;;;20.07;79.43;98568.03;5074659;28;20059;-78
2023/07/17 01:08:21;;;;;;;11.27;4.20;;;;;;;19.90;79.75;98579.72;5078102;28;20124;-78
2023/07/17 01:11:05;;;;;;;11.68;4.25;;;;;;;19.65;79.85;98573.34;5077449;28;20556;-78
2023/07/17 01:13:50;;;;;;;9.35;4.57;;;;;;;19.66;80.10;98574.16;5075834;28;20091;-78
2023/07/17 01:16:35;;;;;;;12.43;3.83;;;;;;;19.76;80.45;98568.81;5074312;28;20035;-77
2023/07/17 01:19:19;;;;;;;9.90;3.78;;;;;;;20.01;79.38;98575.22;5076907;28;20067;-77
2023/07/17 01:22:27;;;;;;;10.27;4.45;;;;;;;20.33;78.87;98571.44;5072696;28;20086;-78
2023/07/17 01:25:11;;;;;;;11.57;4.03;;;;;;;20.26;79.11;98568.28;5070691;28;20075;-78
2023/07/17 01:27:56;;;;;;;12.48;3.65;;;;;;;19.64;79.79;98565.63;5077051;28;20121;-78
2023/07/17 01:30:40;;;;;;;8.52;4.03;;;;;;;19.28;81.28;98566.38;5074840;28;20036;-78
2023/07/17 01:33:24;;;;;;;11.15;4.20;;;;;;;18.83;82.74;98571.28;5071800;28;20047;-78
2023/07/17 01:36:11;;;;;;;11.13;4.05;;;;;;;18.60;83.60;98570.66;5073819;28;20047;-77
2023/07/17 01:38:55;;;;;;;12.52;4.45;;;;;;;18.84;83.62;98571.03;5074685;28;20051;-77
2023/07/17 01:41:40;;;;;;;12.00;4.10;;;;;;;18.82;83.67;98578.47;5080039;28;20062;-78
2023/07/17 01:44:27;;;;;;;11.82;4.38;;;;;;;18.83;84.03;98580.06;5078394;28;20047;-78
2023/07/17 01:47:12;;;;;;;10.40;4.13;;;;;;;19.03;83.50;98583.06;5078808;28;20070;-78
2023/07/17 01:49:55;;;;;;;7.72;4.00;;;;;;;19.18;83.64;98579.69;5073283;28;20079;-78
2023/07/17 01:52:40;;;;;;;10.82;4.25;;;;;;;18.92;83.97;98585.69;5080203;28;20117;-78
2023/07/17 01:55:23;;;;;;;8.82;3.72;;;;;;;18.66;84.34;98582.91;5078328;28;20043;-78
2023/07/17 01:58:07;;;;;;;8.88;3.40;;;;;;;18.89;84.83;98590.72;5078965;28;20044;-78
2023/07/17 02:00:54;;;;;;;9.48;3.90;;;;;;;18.73;85.28;98600.50;5074798;28;20043;-78
2023/07/17 02:03:38;;;;;;;8.27;3.67;;;;;;;18.86;84.54;98588.59;5084231;28;20461;-78
2023/07/17 02:06:22;;;;;;;10.68;4.28;;;;;;;19.11;84.54;98587.91;5075770;28;20105;-77
2023/07/17 02:09:06;;;;;;;7.40;4.10;;;;;;;19.10;84.65;98611.03;5075912;28;20460;-78
2023/07/17 02:11:50;;;;;;;13.10;4.57;;;;;;;18.80;86.12;98598.41;5077665;28;20093;-78
2023/07/17 02:14:34;;;;;;;9.00;3.75;;;;;;;18.83;86.81;98613.81;5072639;28;20098;-77
2023/07/17 02:17:19;;;;;;;8.65;4.32;;;;;;;19.22;85.24;98610.00;5078374;28;20162;-77
2023/07/17 02:20:08;;;;;;;15.05;4.50;;;;;;;18.81;86.66;98613.28;5076100;28;20055;-78
2023/07/17 02:22:52;;;;;;;9.30;4.57;;;;;;;19.12;85.42;98613.44;5081535;28;20055;-76
2023/07/17 02:25:36;;;;;;;17.60;4.72;;;;;;;19.50;84.82;98630.03;5078280;28;20047;-77
2023/07/17 02:28:20;;;;;;;13.05;4.93;;;;;;;19.73;84.36;98617.28;5076917;28;20390;-78
2023/07/17 02:31:04;;;;;;;12.40;4.85;;;;;;;19.66;84.57;98616.75;5075150;28;20194;-78
2023/07/17 02:33:48;;;;;;;11.55;4.60;;;;;;;19.87;83.49;98627.41;5073402;28;20447;-80
2023/07/17 02:36:32;;;;;;;13.45;5.75;;;;;;;18.83;86.78;98633.25;5078667;28;20382;-77
2023/07/17 02:39:16;;;;;;;8.85;4.40;;;;;;;18.87;86.52;98633.53;5073826;28;20027;-78
2023/07/17 02:42:00;;;;;;;8.93;4.72;;;;;;;18.89;86.20;98641.25;5079424;28;20042;-80
2023/07/17 02:44:45;;;;;;;9.52;4.32;;;;;;;18.75;86.76;98641.69;5075248;28;20425;-79
2023/07/17 02:47:29;;;;;;;13.07;4.35;;;;;;;18.68;86.94;98631.31;5074384;28;20031;-78
2023/07/17 02:50:14;;;;;;;11.98;5.30;;;;;;;18.44;87.85;98641.53;5078017;28;20047;-77
2023/07/17 02:52:58;;;;;;;10.65;5.05;;;;;;;18.36;88.86;98642.81;5080437;28;20146;-79
2023/07/17 02:55:42;;;;;;;10.77;5.30;;;;;;;18.73;89.21;98643.03;5081685;28;20145;-78
2023/07/17 02:58:26;;;;;;;13.65;5.47;;;;;;;18.24;89.87;98647.50;5080106;28;20456;-78
2023/07/17 03:01:10;;;;;;;12.02;6.22;;;;;;;18.75;89.37;98646.22;5082463;28;20390;-78
2023/07/17 03:03:54;;;;;;;13.40;5.60;;;;;;;18.44;90.01;98659.34;5082283;28;20031;-77
2023/07/17 03:06:38;;;;;;;12.23;6.10;;;;;;;18.55;89.82;98658.34;5078354;28;20051;-78
2023/07/17 03:09:23;;;;;;;10.00;6.00;;;;;;;18.22;92.06;98668.22;5082282;28;20089;-77
2023/07/17 03:12:07;;;;;;;14.18;6.15;;;;;;;18.49;90.28;98664.69;5079601;28;20071;-78
2023/07/17 03:14:51;;;;;;;20.20;6.05;;;;;;;18.18;91.07;98664.47;5074096;28;20071;-78
2023/07/17 03:17:35;;;;;;;9.52;5.60;;;;;;;17.91;92.40;98682.00;5078549;28;20409;-78
2023/07/17 03:20:19;;;;;;;12.63;6.07;;;;;;;18.11;93.62;98677.97;5077089;28;20113;-79
2023/07/17 03:23:03;;;;;;;10.40;5.40;;;;;;;18.03;92.67;98673.13;5083076;28;20071;-79
2023/07/17 03:25:47;;;;;;;13.40;6.32;;;;;;;18.06;93.59;98673.41;5075628;28;20039;-78
2023/07/17 03:28:31;;;;;;;14.40;6.63;;;;;;;18.46;93.85;98675.81;5081490;28;20042;-78
2023/07/17 03:31:15;;;;;;;15.27;6.85;;;;;;;19.13;90.87;98668.25;5077746;28;20120;-79
2023/07/17 03:33:59;;;;;;;13.95;6.38;;;;;;;19.37;89.60;98663.28;5079023;28;20094;-78
2023/07/17 03:36:43;;;;;;;12.75;6.88;;;;;;;19.27;90.01;98664.06;5081033;28;20173;-78
2023/07/17 03:39:27;;;;;;;12.02;6.45;;;;;;;19.39;89.58;98668.31;5077087;28;20085;-78
2023/07/17 03:42:12;;;;;;;13.63;6.50;;;;;;;19.73;88.88;98675.88;5076990;28;20038;-79
2023/07/17 03:44:59;;;;;;;16.73;6.63;;;;;;;19.54;89.29;98678.22;5077587;28;20043;-79
2023/07/17 03:47:44;;;;;;;18.10;6.75;;;;;;;19.02;90.22;98674.56;5078737;28;21353;-79
2023/07/17 03:50:30;;;;;;;17.38;7.10;;;;;;;18.82;92.40;98673.38;5078228;28;20067;-79
2023/07/17 03:53:14;;;;;;;18.77;7.63;;;;;;;18.97;92.53;98673.47;5078382;28;20050;-78
2023/07/17 03:55:58;;;;;;;14.80;7.53;;;;;;;19.03;91.73;98676.16;5078375;28;20128;-79
2023/07/17 03:58:43;;;;;;;16.00;7.60;;;;;;;18.79;92.81;98676.56;5082198;28;20055;-79
2023/07/17 04:01:27;;;;;;;12.07;7.20;;;;;;;18.80;92.56;98662.22;5082794;28;20153;-78
2023/07/17 04:04:11;;;;;;;11.88;6.88;;;;;;;19.12;92.22;98682.59;5078265;28;20145;-79
2023/07/17 04:06:55;;;;;;;17.90;7.75;;;;;;;18.73;93.20;98681.03;5079069;28;20062;-79
2023/07/17 04:09:39;;;;;;;13.77;8.07;;;;;;;19.37;91.20;98684.56;5078757;28;20102;-78
2023/07/17 04:12:22;;;;;;;13.70;6.95;;;;;;;19.63;89.86;98681.16;5073943;28;20039;-78
2023/07/17 04:15:07;;;;;;;19.25;8.63;;;;;;;19.45;90.57;98685.13;5076509;28;20525;-78
2023/07/17 04:17:51;;;;;;;14.07;7.68;;;;;;;20.08;89.62;98684.19;5074772;28;20698;-78
2023/07/17 04:20:39;;;;;;;15.35;7.93;;;;;;;19.89;89.20;98686.53;5077953;28;20421;-79
2023/07/17 04:23:24;;;;;;;15.13;7.63;;;;;;;19.66;90.03;98697.41;5073953;28;20089;-79
2023/07/17 04:26:07;;;;;;;13.55;7.88;;;;;;;19.60;90.50;98698.47;5080386;28;20435;-79
2023/07/17 04:28:51;;;;;;;13.18;7.65;;;;;;;19.78;90.10;98702.50;5079808;28;20504;-79
2023/07/17 04:31:35;;;;;;;14.63;7.85;;;;;;;20.32;89.09;98707.63;5078184;28;20047;-80
2023/07/17 04:34:19;;;;;;;12.05;7.43;;;;;;;20.00;89.60;98700.69;5076612;28;20131;-79
2023/07/17 04:37:03;;;;;;;15.13;7.78;;;;;;;20.16;88.56;98702.31;5080771;28;20051;-79
2023/07/17 04:39:48;;;;;;;19.52;7.72;;;;;;;20.87;86.43;98707.88;5079385;28;20059;-80
2023/07/17 04:42:31;;;;;;;13.43;7.63;;;;;;;20.80;86.17;98712.66;5073432;28;20490;-79
2023/07/17 04:45:19;;;;;;;11.88;7.40;;;;;;;21.05;85.84;98716.34;5075547;28;20508;-80
2023/07/17 04:48:03;;;;;;;12.63;7.65;;;;;;;20.73;85.68;98717.47;5081833;28;21217;-79
2023/07/17 04:50:48;;;;;;;11.88;7.20;;;;;;;20.71;85.97;98716.94;5079759;28;20114;-80
2023/07/17 04:53:33;;;;;;;15.27;7.10;;;;;;;20.44;86.00;98715.34;5080340;28;20046;-81
2023/07/17 04:56:17;;;;;;;16.15;7.82;;;;;;;20.59;86.14;98718.00;5077145;28;20047;-80
2023/07/17 04:59:02;;;;;;;11.23;7.03;;;;;;;20.49;86.29;98718.03;5079810;28;20470;-81
2023/07/17 05:01:46;;;;;;;17.13;7.57;;;;;;;20.24;86.52;98719.63;5077883;28;20120;-80
2023/07/17 05:04:30;;;;;;;13.32;7.38;;;;;;;20.12;87.29;98726.03;5079703;28;20047;-80
2023/07/17 05:07:14;;;;;;;11.13;6.97;;;;;;;20.37;87.46;98723.63;5078041;28;20051;-79
2023/07/17 05:09:59;;;;;;;18.55;8.23;;;;;;;20.31;87.68;98722.81;5078260;28;20645;-80
2023/07/17 05:12:44;;;;;;;10.43;6.95;;;;;;;20.49;87.27;98723.34;5072070;28;20058;-79
2023/07/17 05:15:28;;;;;;;18.92;8.73;;;;;;;20.81;86.04;98724.94;5072753;28;20130;-80
2023/07/17 05:18:12;;;;;;;14.23;8.63;;;;;;;20.69;86.28;98727.84;5075409;28;20047;-79
2023/07/17 05:20:56;;;;;;;15.55;7.70;;;;;;;20.37;88.30;98727.09;5079758;28;20047;-80
2023/07/17 05:23:39;;;;;;;14.63;7.95;;;;;;;20.11;90.04;98729.75;5079742;28;20531;-79
2023/07/17 05:26:24;;;;;;;14.20;8.15;;;;;;;20.23;89.73;98742.81;5075528;28;20162;-79
2023/07/17 05:29:08;;;;;;;12.48;7.90;;;;;;;20.33;89.95;98738.53;5077614;28;20039;-79
2023/07/17 05:31:52;;;;;;;10.27;7.38;;;;;;;20.97;88.55;98744.38;5076633;28;20094;-78
2023/07/17 05:34:36;;;;;;;12.88;7.85;;;;;;;21.13;87.54;98737.13;5075742;28;20125;-79
2023/07/17 05:37:20;;;;;;;11.82;7.38;;;;;;;21.41;86.96;98748.22;5075808;28;20125;-78
2023/07/17 05:40:05;;;;;;;14.15;8.05;;;;;;;21.75;85.76;98736.88;5070390;28;20048;-78
2023/07/17 05:42:49;;;;;;;11.60;7.25;;;;;;;21.37;86.77;98742.66;5079581;28;20088;-78
2023/07/17 05:45:34;;;;;;;13.50;7.60;;;;;;;21.46;87.22;98739.41;5073917;28;20464;-78
2023/07/17 05:48:18;;;;;;;14.60;7.32;;;;;;;21.65;86.56;98743.06;5082368;28;20497;-78
2023/07/17 05:51:02;;;;;;;12.18;7.03;;;;;;;21.87;85.97;98746.44;5072087;28;20116;-79
2023/07/17 05:53:46;;;;;;;13.77;7.13;;;;;;;22.07;85.03;98753.53;5070146;28;20509;-79
2023/07/17 05:56:30;;;;;;;13.20;6.80;;;;;;;22.03;85.14;98750.63;5073949;28;20055;-80
2023/07/17 05:59:14;;;;;;;16.70;8.10;;;;;;;22.44;84.30;98754.06;5074075;28;20069;-80
2023/07/17 06:01:58;;;;;;;14.55;7.53;;;;;;;22.94;82.62;98754.69;5073410;28;20509;-80
2023/07/17 06:04:42;;;;;;;15.30;8.30;;;;;;;22.66;83.18;98756.28;5074752;28;20038;-80
2023/07/17 06:07:26;;;;;;;14.38;7.88;;;;;;;22.88;81.12;98758.50;5077972;28;20063;-79
2023/07/17 06:10:12;;;;;;;16.30;8.23;;;;;;;23.11;81.58;98758.81;5079094;28;20062;-81
2023/07/17 06:12:56;;;;;;;12.93;7.85;;;;;;;23.71;80.75;98762.91;5077246;28;20086;-81
2023/07/17 06:15:40;;;;;;;11.20;7.00;;;;;;;24.06;78.40;98771.59;5080491;28;20123;-81
2023/07/17 06:18:24;;;;;;;11.75;6.75;;;;;;;24.01;77.74;98774.31;5075408;28;20043;-80
2023/07/17 06:21:08;;;;;;;11.98;6.57;;;;;;;24.78;77.43;98769.66;5076383;28;20045;-80
2023/07/17 06:23:52;;;;;;;10.13;6.50;;;;;;;24.36;75.89;98769.50;5079848;28;20059;-80
2023/07/17 06:26:36;;;;;;;14.25;6.80;;;;;;;24.88;76.92;98773.25;5079202;28;20069;-79
2023/07/17 06:29:20;;;;;;;11.48;6.07;;;;;;;24.88;75.17;98779.41;5083188;28;20043;-79
2023/07/17 06:32:05;;;;;;;11.38;5.78;;;;;;;24.79;73.47;98783.88;5079064;28;20121;-79
2023/07/17 06:34:48;;;;;;;11.75;5.63;;;;;;;24.89;72.44;98790.97;5083277;28;20089;-80
2023/07/17 06:37:32;;;;;;;12.02;6.00;;;;;;;25.20;73.03;98793.06;5084344;28;20090;-79
2023/07/17 06:40:16;;;;;;;9.88;6.00;;;;;;;25.62;71.83;98793.06;5082442;28;20413;-79
2023/07/17 06:43:01;;;;;;;12.70;5.72;;;;;;;25.69;70.94;98796.13;5083996;28;20047;-80
2023/07/17 06:45:45;;;;;;;10.40;5.50;;;;;;;25.45;71.14;98797.13;5078795;28;20063;-80
2023/07/17 06:48:28;;;;;;;12.38;5.72;;;;;;;25.51;71.92;98798.66;5077121;28;20051;-80
2023/07/17 06:51:13;;;;;;;11.35;5.80;;;;;;;25.80;70.92;98802.91;5074492;28;20101;-79
2023/07/17 06:53:57;;;;;;;11.40;5.55;;;;;;;24.97;70.45;98803.69;5075970;28;20071;-80
2023/07/17 06:56:41;;;;;;;9.65;5.68;;;;;;;24.41;71.46;98810.78;5072484;28;20394;-82
2023/07/17 06:59:28;;;;;;;10.95;5.75;;;;;;;25.14;70.77;98813.06;5069625;28;20434;-81
2023/07/17 07:02:13;;;;;;;10.38;5.40;;;;;;;24.76;70.65;98814.78;5074434;28;20117;-82
2023/07/17 07:04:57;;;;;;;7.85;5.30;;;;;;;24.37;71.66;98816.72;5078987;28;20043;-81
2023/07/17 07:07:44;;;;;;;10.85;5.40;;;;;;;24.22;72.06;98820.41;5081828;28;20043;-80
2023/07/17 07:10:28;;;;;;;11.43;5.55;;;;;;;24.61;71.33;98831.09;5081706;28;20046;-80
2023/07/17 07:13:13;;;;;;;11.25;5.80;;;;;;;24.45;72.03;98825.19;5079309;28;20140;-81
2023/07/17 07:15:57;;;;;;;8.95;5.25;;;;;;;24.00;72.73;98837.06;5082905;28;20063;-81
2023/07/17 07:18:41;;;;;;;11.75;6.28;;;;;;;24.39;72.40;98833.31;5083500;28;20575;-83
2023/07/17 07:21:25;;;;;;;9.60;5.10;;;;;;;24.73;71.76;98833.31;5083794;28;20083;-81
2023/07/17 07:24:09;;;;;;;14.35;5.90;;;;;;;24.47;72.03;98841.78;5077185;28;21596;-81
2023/07/17 07:26:52;;;;;;;12.00;5.88;;;;;;;24.52;72.33;98847.06;5082651;28;20051;-81
2023/07/17 07:29:36;;;;;;;7.25;5.40;;;;;;;24.75;71.26;98850.75;5077235;28;20051;-79
2023/07/17 07:32:20;;;;;;;9.55;5.20;;;;;;;24.16;71.91;98850.25;5082244;28;20449;-81
2023/07/17 07:35:05;;;;;;;10.52;5.70;;;;;;;24.22;71.73;98843.75;5079223;28;20055;-80
2023/07/17 07:37:49;;;;;;;8.93;5.47;;;;;;;24.04;72.15;98856.88;5078195;28;20036;-81
2023/07/17 07:40:33;;;;;;;10.45;5.93;;;;;;;24.09;71.86;98856.00;5077164;28;20098;-81
2023/07/17 07:43:17;;;;;;;9.55;5.45;;;;;;;24.04;71.49;98861.41;5080943;28;20056;-81
2023/07/17 07:46:01;;;;;;;8.60;5.45;;;;;;;24.65;71.96;98861.63;5082135;28;20051;-80
2023/07/17 07:48:48;;;;;;;12.02;5.40;;;;;;;24.43;70.94;98867.59;5081498;28;20039;-79
2023/07/17 07:51:32;;;;;;;9.52;5.47;;;;;;;25.31;70.85;98861.63;5085036;28;20452;-79
2023/07/17 07:54:17;;;;;;;10.23;5.03;;;;;;;25.60;70.35;98857.88;5077282;28;20039;-79
2023/07/17 07:57:00;;;;;;;8.30;4.82;;;;;;;25.05;69.83;98867.44;5082951;28;20509;-79
2023/07/17 07:59:45;;;;;;;6.82;4.93;;;;;;;26.19;69.04;98873.34;5078729;28;21500;-80
2023/07/17 08:02:29;;;;;;;9.77;4.63;;;;;;;26.50;68.15;98866.47;5076745;28;20047;-79
2023/07/17 08:05:13;;;;;;;12.32;5.28;;;;;;;26.98;67.01;98873.16;5079475;28;20051;-78
2023/07/17 08:07:57;;;;;;;8.93;5.00;;;;;;;26.55;66.03;98869.06;5074032;28;20067;-78
2023/07/17 08:10:43;;;;;;;6.65;4.50;;;;;;;26.92;65.91;98874.41;5076295;28;20043;-79
2023/07/17 08:13:27;;;;;;;5.95;4.47;;;;;;;25.95;66.33;98869.00;5077990;28;20043;-79
2023/07/17 08:16:11;;;;;;;7.82;4.18;;;;;;;27.32;65.10;98884.44;5078560;28;20071;-78
2023/07/17 08:18:55;;;;;;;7.15;4.45;;;;;;;27.30;64.25;98881.22;5079695;28;20131;-78
2023/07/17 08:21:39;;;;;;;9.15;4.32;;;;;;;27.30;63.18;98892.00;5077720;28;20035;-79
2023/07/17 08:24:23;;;;;;;10.05;4.28;;;;;;;27.78;63.24;98887.78;5076695;28;20466;-78
2023/07/17 08:27:07;;;;;;;6.10;3.95;;;;;;;28.27;62.12;98890.41;5079315;28;20039;-78
2023/07/17 08:29:51;;;;;;;6.72;4.18;;;;;;;28.00;60.86;98892.28;5081270;28;20397;-78
2023/07/17 08:32:35;;;;;;;7.03;4.10;;;;;;;27.56;60.27;98894.06;5078846;28;20034;-78
2023/07/17 08:35:19;;;;;;;8.13;4.47;;;;;;;27.43;61.40;98899.22;5081561;28;20028;-80
2023/07/17 08:38:04;;;;;;;8.30;4.70;;;;;;;27.63;60.43;98905.19;5070380;28;20538;-79
2023/07/17 08:40:51;;;;;;;6.68;4.03;;;;;;;27.00;60.78;98892.50;5077420;28;20046;-79
2023/07/17 08:43:37;;;;;;;6.53;4.30;;;;;;;27.13;60.35;98903.50;5077346;28;20101;-79
2023/07/17 08:46:21;;;;;;;8.82;4.60;;;;;;;27.51;61.04;98914.66;5077138;28;20488;-79
2023/07/17 08:49:06;;;;;;;8.88;4.55;;;;;;;27.16;61.38;98903.69;5082023;28;20081;-79
2023/07/17 08:51:52;;;;;;;7.13;5.10;;;;;;;27.20;61.26;98904.66;5077642;28;20123;-79
2023/07/17 08:54:36;;;;;;;9.20;4.95;;;;;;;26.57;61.96;98915.31;5073505;28;20059;-79
2023/07/17 08:57:22;;;;;;;9.18;4.88;;;;;;;26.11;62.52;98903.63;5074097;28;20043;-79
2023/07/17 09:00:07;;;;;;;8.13;5.38;;;;;;;25.81;62.92;98911.22;5078749;28;20178;-79
2023/07/17 09:02:51;;;;;;;9.98;4.90;;;;;;;26.31;62.62;98918.56;5075920;28;20066;-79
2023/07/17 09:05:35;;;;;;;13.90;5.20;;;;;;;25.44;63.47;98918.34;5077756;28;20539;-79
2023/07/17 09:08:20;;;;;;;9.30;5.38;;;;;;;25.87;62.67;98919.97;5071803;28;20136;-79
2023/07/17 09:11:07;;;;;;;9.35;4.60;;;;;;;26.81;61.87;98906.13;5074760;28;20054;-79
2023/07/17 09:13:51;;;;;;;5.28;4.18;;;;;;;27.17;60.95;98910.66;5075531;28;20070;-79
2023/07/17 09:16:38;;;;;;;7.57;4.47;;;;;;;27.55;59.48;98914.03;5076020;28;20085;-79
2023/07/17 09:19:22;;;;;;;5.65;4.30;;;;;;;27.98;57.75;98915.28;5076356;28;20035;-79
2023/07/17 09:22:07;;;;;;;6.40;3.63;;;;;;;28.36;56.93;98929.03;5077857;28;20402;-80
2023/07/17 09:24:51;;;;;;;7.07;3.85;;;;;;;29.03;57.09;98928.06;5077538;28;20501;-79
2023/07/17 09:27:51;;;;;;;5.78;3.90;;;;;;;28.19;56.10;98935.16;5075065;28;20090;-80
2023/07/17 09:30:35;;;;;;;3.92;3.50;;;;;;;27.33;57.77;98945.31;5073248;28;20123;-79
2023/07/17 09:33:24;;;;;;;5.90;3.55;;;;;;;26.78;57.67;98947.91;5075113;28;20346;-79
2023/07/17 09:36:11;;;;;;;7.00;4.50;;;;;;;26.45;58.51;98955.41;5073967;28;20035;-79
2023/07/17 09:38:57;;;;;;;7.15;4.07;;;;;;;26.59;59.87;98945.41;5072453;28;20063;-79
2023/07/17 09:41:41;;;;;;;5.25;3.90;;;;;;;26.97;60.42;98948.88;5076533;28;20082;-79
2023/07/17 09:44:25;;;;;;;6.97;3.95;;;;;;;26.48;60.86;98954.78;5072639;28;20087;-79
2023/07/17 09:47:09;;;;;;;6.38;3.67;;;;;;;25.80;61.03;98961.50;5074316;28;20102;-79
2023/07/17 09:49:54;;;;;;;7.57;3.50;;;;;;;25.62;61.13;98978.53;5076321;28;20551;-79
2023/07/17 09:52:39;;;;;;;5.75;2.38;;;;;;;25.70;55.90;98975.13;5073303;28;22152;-79
2023/07/17 09:55:28;;;;;;;3.90;1.85;;;;;;;25.21;55.74;98982.66;5078214;28;20867;-79
2023/07/17 09:58:15;;;;;;;2.65;1.60;;;;;;;24.33;56.32;98981.19;5075426;28;20555;-79
2023/07/17 10:01:03;;;;;;;1.70;1.40;;;;;;;22.63;59.09;98990.41;5074917;28;20055;-78
2023/07/17 10:03:49;;;;;;;1.08;1.08;;;;;;;22.38;61.41;98994.75;5079719;28;20058;-78
2023/07/17 10:06:33;;;;;;;2.47;1.10;;;;;;;22.71;62.26;98990.88;5077222;28;20051;-79
2023/07/17 10:09:20;;;;;;;1.00;1.00;;;;;;;22.25;62.71;98995.34;5081483;28;20058;-79
2023/07/17 10:12:05;;;;;;;1.83;1.10;;;;;;;22.60;63.72;98996.31;5079859;28;20155;-79
2023/07/17 10:14:50;;;;;;;1.65;1.10;;;;;;;22.02;65.39;98996.75;5076172;28;20052;-79
2023/07/17 10:17:35;;;;;;;1.25;0.93;;;;;;;21.84;67.44;98980.22;5079669;28;20552;-79
2023/07/17 10:20:20;;;;;;;1.55;1.10;;;;;;;21.28;69.44;98989.06;5077967;28;20138;-80
2023/07/17 10:23:09;;;;;;;0.90;0.90;;;;;;;20.96;92.95;98999.72;5081944;28;20067;-80
2023/07/17 10:26:08;;;;;;;1.45;1.13;;;;;;;20.57;87.91;99007.31;5079564;28;20059;-78
2023/07/17 10:28:53;;;;;;;1.45;1.30;;;;;;;20.30;86.92;99010.94;5079011;28;20532;-78
2023/07/17 10:31:48;;;;;;;2.00;1.35;;;;;;;20.03;86.90;99014.53;5079688;28;20063;-79
2023/07/17 10:34:52;;;;;;;1.85;1.50;;;;;;;20.15;88.22;99012.47;5079217;28;20043;-79
2023/07/17 10:37:36;;;;;;;3.35;2.00;;;;;;;20.33;87.95;99008.56;5079932;28;20051;-79
2023/07/17 10:40:27;;;;;;;;;;;;;;;20.10;88.65;99012.44;5081039;28;20040;-79
2023/07/17 10:43:14;;;;;;;3.85;2.00;;;;;;;20.65;87.93;99010.28;5077061;28;19935;-79
2023/07/17 10:45:59;;;;;;;6.55;2.47;;;;;;;20.43;88.48;99028.31;5081139;28;20125;-79
2023/07/17 10:48:43;;;;;;;2.75;2.25;;;;;;;20.97;89.50;99027.19;5077515;28;20047;-79
2023/07/17 10:51:28;;;;;;;2.97;2.65;;;;;;;20.92;90.80;99030.66;5080024;28;20081;-80
2023/07/17 10:54:13;;;;;;;5.15;3.65;;;;;;;21.49;88.97;99032.59;5077718;28;20551;-79
2023/07/17 10:56:57;;;;;;;3.75;2.97;;;;;;;21.36;87.62;99032.06;5078664;28;20156;-80
2023/07/17 10:59:42;;;;;;;2.80;2.13;;;;;;;21.67;87.57;99042.75;5077901;28;20097;-80
2023/07/17 11:02:26;;;;;;;4.57;2.45;;;;;;;22.26;85.45;99045.06;5077087;28;20452;-80
2023/07/17 11:05:10;;;;;;;3.65;2.47;;;;;;;22.86;83.16;99051.53;5076610;28;20174;-80
2023/07/17 11:07:57;;;;;;;3.92;2.33;;;;;;;23.30;81.85;99061.50;5077007;28;20056;-80
2023/07/17 11:10:43;;;;;;;5.18;2.58;;;;;;;23.64;81.04;99058.00;5077951;28;20119;-80
2023/07/17 11:13:34;;;;;;;3.78;2.50;;;;;;;23.46;79.06;99058.69;5074239;28;20047;-80
2023/07/17 11:16:20;;;;;;;6.13;3.00;;;;;;;22.63;80.12;99070.66;5077862;28;20059;-80
2023/07/17 11:19:04;;;;;;;5.60;2.90;;;;;;;22.78;80.54;99066.28;5079390;28;20051;-80
2023/07/17 11:21:49;;;;;;;5.85;3.90;;;;;;;23.11;81.38;99074.69;5084012;28;20039;-80
2023/07/17 11:24:33;;;;;;;5.53;4.15;;;;;;;23.19;81.71;99066.09;5085983;28;20059;-80
2023/07/17 11:27:17;;;;;;;7.10;4.30;;;;;;;23.04;81.78;99052.78;5078798;28;20137;-80
2023/07/17 11:30:01;;;;;;;6.65;4.30;;;;;;;23.67;84.50;99059.31;5074650;28;20062;-81
2023/07/17 11:33:02;;;;;;;7.70;4.70;;;;;;;23.57;82.26;99059.41;5076850;28;20102;-80
2023/07/17 11:35:52;;;;;;;5.80;4.50;;;;;;;23.45;82.99;99059.75;5074955;28;20043;-80
2023/07/17 11:38:36;;;;;;;5.10;4.47;;;;;;;23.68;80.77;99061.75;5081400;28;20054;-81
2023/07/17 11:41:20;;;;;;;8.90;5.03;;;;;;;23.84;80.95;99058.91;5078778;28;20082;-79
2023/07/17 11:44:07;;;;;;;5.93;4.03;;;;;;;23.47;82.28;99068.31;5077353;28;20178;-79
2023/07/17 11:47:04;;;;;;;6.85;4.20;;;;;;;23.35;82.45;99071.34;5077067;28;20402;-79
2023/07/17 11:49:53;;;;;;;7.03;3.55;;;;;;;23.06;82.34;99061.34;5075851;28;20112;-79
2023/07/17 11:52:38;;;;;;;15.18;4.05;;;;;;;23.07;81.48;99079.00;5074555;28;20590;-81
2023/07/17 11:55:22;;;;;;;4.53;3.00;;;;;;;23.20;80.36;99073.03;5081536;28;20042;-81
2023/07/17 11:58:26;;;;;;;5.43;3.00;;;;;;;24.06;78.02;99085.28;5077234;28;20078;-80
2023/07/17 12:01:10;;;;;;;3.83;2.70;;;;;;;24.54;75.69;99083.69;5072365;28;20394;-81
2023/07/17 12:03:55;;;;;;;4.68;3.47;;;;;;;25.26;72.93;99089.22;5072685;28;20097;-82
2023/07/17 12:06:39;;;;;;;6.80;3.90;;;;;;;26.06;71.52;99078.56;5072017;28;20508;-81
2023/07/17 12:09:23;;;;;;;6.03;4.68;;;;;;;26.94;69.41;99091.16;5078081;28;20051;-80
2023/07/17 12:12:08;;;;;;;20.80;5.50;;;;;;;26.46;68.88;99089.69;5077172;28;20043;-81
2023/07/17 12:14:52;;;;;;;20.50;5.47;;;;;;;27.90;69.60;99084.06;5077756;28;20039;-82
2023/07/17 12:17:36;;;;;;;19.30;6.60;;;;;;;27.20;66.12;99089.75;5077330;28;20143;-82
2023/07/17 12:20:24;;;;;;;6.15;4.63;;;;;;;27.57;68.32;99087.06;5082347;28;20039;-79
2023/07/17 12:23:09;;;;;;;3.97;3.40;;;;;;;26.10;67.28;99080.34;5075239;28;20055;-79
2023/07/17 12:25:53;;;;;;;5.30;3.30;;;;;;;25.55;67.81;99094.47;5077192;28;20052;-80
2023/07/17 12:28:37;;;;;;;5.05;3.53;;;;;;;25.63;68.24;99088.41;5077609;28;20042;-81
2023/07/17 12:31:21;;;;;;;4.20;3.80;;;;;;;25.42;68.42;99082.53;5078584;28;20521;-81
2023/07/17 12:34:07;;;;;;;7.85;3.60;;;;;;;25.33;69.77;99090.47;5080533;28;20062;-81
2023/07/17 12:36:51;;;;;;;12.90;4.00;;;;;;;25.14;70.16;99079.72;5075436;28;20043;-80
2023/07/17 12:39:35;;;;;;;5.68;3.20;;;;;;;25.46;69.12;99083.53;5073340;28;20410;-80
2023/07/17 12:42:19;;;;;;;8.98;3.53;;;;;;;25.36;68.78;99092.56;5076194;28;20116;-80
2023/07/17 12:45:04;;;;;;;3.53;2.85;;;;;;;25.59;69.65;99092.78;5081140;28;20131;-79
2023/07/17 12:47:48;;;;;;;4.57;2.90;;;;;;;25.39;68.58;99093.88;5079935;28;20089;-79
2023/07/17 12:50:32;;;;;;;4.90;3.20;;;;;;;24.99;69.39;99085.31;5078170;28;20398;-79
2023/07/17 12:53:17;;;;;;;15.80;4.00;;;;;;;26.32;66.46;99091.56;5079447;28;20036;-79